Latest Weather Observations for Nuriootpa

IDS60901

Issued at 9:51 pm CST Friday 4 September 2015 (issued every 10 minutes, with the page automatically refreshed every 10 minutes)

About weather observations | Map of Adelaide area stations | Latest observations for Adelaide area | Other Formats
Station Details ID: 023373 Name: NURIOOTPA VITICULTURAL Lat: -34.48 Lon: 139.01 Height: 275.0 m
Data from the previous 72 hours. | See also: Recent months at Nuriootpa
Date/Time
CST
Tmp

°C
App
Tmp
°C
Dew
Point
°C
Rel
Hum
%
Delta-T

°C
Wind Press
QNH
hPa
Press
MSL
hPa
Rain
since
9 am
mm
Dir
 
Spd
km/h
Gust
km/h
Spd
kts
Gust
kts
04/09:30pm 8.4 7.3 5.1 80 1.5 CALM 0 6 0 3 1026.2 1026.2 0.0
04/09:00pm 9.3 6.8 4.9 74 2.0 E 7 11 4 6 1026.2 1026.2 0.0
04/08:30pm 9.4 8.7 6.9 84 1.2 CALM 0 0 0 0 1026.2 1026.2 0.0
04/08:00pm 9.6 8.9 6.9 83 1.3 CALM 0 0 0 0 1026.1 1026.1 0.0
04/07:30pm 9.7 7.7 7.0 83 1.3 SSW 7 9 4 5 1026.1 1026.1 0.0
04/07:00pm 9.8 7.9 6.6 80 1.5 WSW 6 9 3 5 1025.9 1025.9 0.0
04/06:30pm 10.0 7.9 6.6 79 1.6 WSW 7 9 4 5 1025.8 1025.8 0.0
04/06:00pm 10.2 7.7 6.4 77 1.8 WSW 9 15 5 8 1025.7 1025.7 0.0
04/05:30pm 10.4 7.1 6.6 77 1.8 SW 13 17 7 9 1025.4 1025.5 0.0
04/05:00pm 10.8 7.4 5.9 72 2.3 SW 13 17 7 9 1025.2 1025.3 0.0
04/04:30pm 11.2 8.5 5.6 68 2.6 SW 9 15 5 8 1025.1 1025.2 0.0
04/04:00pm 11.3 8.4 4.8 64 3.0 WSW 9 13 5 7 1025.0 1025.0 0.0
04/03:30pm 11.6 8.4 5.1 64 3.0 W 11 13 6 7 1025.2 1025.3 0.0
04/03:00pm 11.4 8.5 4.4 62 3.2 SW 9 13 5 7 1025.2 1025.3 0.0
04/02:30pm 11.6 9.2 4.1 60 3.4 WSW 6 9 3 5 1025.1 1025.2 0.0
04/02:00pm 11.5 8.6 4.5 62 3.2 W 9 13 5 7 1025.2 1025.3 0.0
04/01:30pm 11.9 10.3 4.7 61 3.3 E 2 7 1 4 1025.7 1025.7 0.0
04/01:00pm 11.3 9.9 3.4 58 3.5 CALM 0 0 0 0 1026.1 1026.1 0.0
04/12:30pm 11.6 9.3 4.6 62 3.2 E 6 9 3 5 1026.3 1026.3 0.0
04/12:00pm 10.9 8.3 4.0 62 3.1 ESE 7 9 4 5 1026.6 1026.6 0.0
04/11:30am 10.7 8.3 4.3 64 2.9 E 6 9 3 5 1026.9 1026.9 0.0
04/11:00am 10.7 8.8 5.0 68 2.6 N 4 7 2 4 1027.4 1027.4 0.0
04/10:30am 9.8 7.5 4.7 70 2.3 WSW 6 7 3 4 1027.7 1027.7 0.0
04/10:00am 9.1 6.7 5.4 77 1.7 SW 7 11 4 6 1027.9 1027.9 0.0
04/09:30am 9.0 6.7 5.7 80 1.5 E 7 9 4 5 1028.1 1028.1 0.0
04/09:00am 8.4 6.8 6.2 86 1.0 SSW 4 9 2 5 1028.3 1028.4 1.6
04/08:30am 7.9 7.2 7.0 94 0.4 CALM 0 0 0 0 1028.3 1028.4 1.6
04/08:00am 6.1 4.8 6.1 100 0.0 E 2 6 1 3 1028.2 1028.3 1.0
04/07:30am 4.9 3.7 4.7 99 0.1 CALM 0 0 0 0 1027.8 1027.8 1.0
04/07:00am 4.1 2.4 4.1 100 0.0 NNW 2 6 1 3 1027.2 1027.2 1.0
04/06:30am 4.8 3.6 4.8 100 0.0 CALM 0 6 0 3 1026.7 1026.7 1.0
04/06:00am 5.1 2.9 5.1 100 0.0 N 6 6 3 3 1026.4 1026.4 1.0
04/05:30am 5.1 2.8 4.9 99 0.1 E 6 9 3 5 1026.3 1026.3 1.0
04/05:00am 3.5 1.0 3.5 100 0.0 E 6 9 3 5 1026.0 1026.0 0.8
04/04:30am 4.0 1.4 4.0 100 0.0 NE 7 9 4 5 1026.1 1026.1 0.8
04/04:00am 3.6 0.8 3.4 99 0.1 ENE 7 9 4 5 1026.2 1026.2 0.8
04/03:30am 2.1 0.4 1.8 98 0.1 CALM 0 0 0 0 1026.0 1026.0 0.8
04/03:00am 3.1 0.3 2.9 99 0.1 NE 7 9 4 5 1025.9 1025.9 0.8
04/02:30am 2.8 -0.1 2.8 100 0.0 ENE 7 9 4 5 1026.1 1026.1 0.8
04/02:00am 3.4 0.8 3.2 99 0.1 N 6 7 3 4 1026.2 1026.2 0.8
04/01:30am 3.9 2.1 3.7 99 0.1 NNE 2 7 1 4 1026.3 1026.3 0.8
04/01:00am 3.9 2.5 3.4 97 0.2 CALM 0 0 0 0 1026.3 1026.3 0.8
04/12:30am 4.5 3.2 4.3 99 0.1 CALM 0 0 0 0 1026.1 1026.1 0.8
04/12:00am 5.4 4.2 4.7 95 0.3 CALM 0 0 0 0 1026.1 1026.1 0.8
 
Date/Time
CST
Tmp

°C
App
Tmp
°C
Dew
Point
°C
Rel
Hum
%
Delta-T

°C
Wind Press
QNH
hPa
Press
MSL
hPa
Rain
since
9 am
mm
Dir
 
Spd
km/h
Gust
km/h
Spd
kts
Gust
kts
03/11:30pm 6.6 4.5 5.7 94 0.4 SW 6 7 3 4 1026.0 1026.0 0.8
03/11:00pm 7.2 4.1 5.4 88 0.8 SSW 11 15 6 8 1026.1 1026.1 0.8
03/10:30pm 7.8 4.8 5.8 87 0.9 SSE 11 15 6 8 1026.0 1026.0 0.8
03/10:00pm 8.3 4.9 5.9 85 1.1 SSE 13 20 7 11 1025.8 1025.8 0.8
03/09:30pm 7.5 5.2 5.7 88 0.8 S 7 11 4 6 1025.7 1025.7 0.8
03/09:00pm 8.0 6.8 6.5 90 0.7 SW 2 7 1 4 1025.5 1025.6 0.8
03/08:30pm 8.5 6.4 6.6 88 0.9 SSW 7 11 4 6 1025.3 1025.4 0.8
03/08:00pm 9.8 6.7 7.1 83 1.3 S 13 22 7 12 1025.0 1025.0 0.8
03/07:30pm 10.0 7.0 7.7 86 1.1 SSW 13 17 7 9 1024.8 1024.8 0.8
03/07:00pm 10.4 7.4 7.7 83 1.3 SW 13 17 7 9 1024.2 1024.2 0.8
03/06:30pm 11.0 7.6 7.7 80 1.6 S 15 22 8 12 1023.9 1023.9 0.8
03/06:00pm 11.0 8.0 7.7 80 1.6 SW 13 20 7 11 1023.6 1023.6 0.8
03/05:30pm 11.3 8.0 8.1 81 1.6 SSW 15 20 8 11 1023.2 1023.2 0.8
03/05:00pm 12.2 9.5 9.0 81 1.6 SSW 13 20 7 11 1023.0 1023.0 0.8
03/04:30pm 12.0 8.5 8.6 80 1.7 SSW 17 22 9 12 1022.8 1022.8 0.8
03/04:00pm 12.6 9.6 9.1 79 1.8 SW 15 19 8 10 1022.3 1022.3 0.8
03/03:30pm 12.4 9.0 9.1 80 1.7 SSW 17 20 9 11 1022.1 1022.1 0.8
03/03:00pm 12.6 9.7 9.7 82 1.5 SSW 15 20 8 11 1021.5 1021.5 0.8
03/02:30pm 11.7 9.4 10.5 92 0.6 SSW 13 17 7 9 1021.4 1021.4 0.8
03/02:00pm 11.4 8.8 10.6 95 0.4 WSW 15 22 8 12 1021.2 1021.2 0.8
03/01:30pm 11.6 8.9 10.4 92 0.6 SW 15 20 8 11 1021.0 1021.0 0.8
03/01:00pm 11.5 9.3 10.7 95 0.4 SSW 13 19 7 10 1021.0 1021.0 0.8
03/12:30pm 11.9 8.3 9.8 87 1.1 SW 19 28 10 15 1021.1 1021.1 0.6
03/12:00pm 12.2 9.0 9.9 86 1.2 SSW 17 22 9 12 1021.0 1021.0 0.6
03/11:30am 12.4 9.4 9.3 81 1.6 SSW 15 19 8 10 1021.0 1021.0 0.6
03/11:00am 11.8 7.8 9.2 84 1.3 SSW 20 26 11 14 1020.9 1020.9 0.6
03/10:30am 11.0 7.7 9.4 90 0.8 SSW 17 30 9 16 1020.6 1020.6 0.6
03/10:00am 10.5 7.7 9.9 96 0.3 SW 15 20 8 11 1020.3 1020.3 0.4
03/09:30am 10.5 7.7 10.1 97 0.2 SW 15 20 8 11 1019.8 1019.8 0.2
03/09:00am 10.3 7.1 9.9 97 0.2 SW 17 22 9 12 1019.2 1019.2 5.6
03/08:30am 10.0 6.3 9.4 96 0.3 WSW 19 26 10 14 1018.7 1018.6 5.6
03/08:00am 9.8 6.4 9.2 96 0.3 WSW 17 24 9 13 1017.8 1017.8 5.6
03/07:30am 9.4 6.0 9.2 99 0.1 WSW 17 24 9 13 1017.1 1017.1 5.6
03/07:00am 8.8 6.4 8.6 99 0.1 SW 11 15 6 8 1016.6 1016.6 5.6
03/06:30am 8.7 7.0 8.5 99 0.1 SW 7 11 4 6 1016.1 1016.1 5.6
03/06:00am 8.5 7.0 8.3 99 0.1 SSW 6 7 3 4 1015.6 1015.5 5.4
03/05:30am 8.4 6.8 8.2 99 0.1 SW 6 9 3 5 1014.9 1014.8 5.4
03/05:00am 8.5 5.6 8.3 99 0.1 SW 13 17 7 9 1014.4 1014.3 5.4
03/04:30am 8.5 4.8 8.1 97 0.2 WSW 17 24 9 13 1014.0 1014.0 5.4
03/04:00am 8.1 4.4 7.9 99 0.1 WSW 17 22 9 12 1013.3 1013.3 5.4
03/03:30am 7.5 4.4 7.1 97 0.2 WSW 13 17 7 9 1012.9 1012.9 5.4
03/03:00am 7.4 4.6 7.0 97 0.2 WSW 11 17 6 9 1012.4 1012.3 5.4
03/02:30am 7.3 4.1 6.9 97 0.2 WSW 13 17 7 9 1012.0 1011.9 5.4
03/02:00am 7.3 4.1 6.9 97 0.2 SSW 13 17 7 9 1011.9 1011.8 5.4
03/01:30am 7.9 4.1 7.5 97 0.2 WSW 17 22 9 12 1011.6 1011.5 5.4
03/01:00am 7.5 4.2 6.2 91 0.6 WSW 13 19 7 10 1011.4 1011.3 5.4
03/12:30am 7.6 4.7 6.3 91 0.6 WSW 11 13 6 7 1010.3 1010.3 5.4
03/12:00am 8.3 4.6 6.2 87 1.0 SSW 15 22 8 12 1009.8 1009.8 5.4
 
Date/Time
CST
Tmp

°C
App
Tmp
°C
Dew
Point
°C
Rel
Hum
%
Delta-T

°C
Wind Press
QNH
hPa
Press
MSL
hPa
Rain
since
9 am
mm
Dir
 
Spd
km/h
Gust
km/h
Spd
kts
Gust
kts
02/11:30pm 8.5 4.9 6.6 88 0.9 SSW 15 20 8 11 1009.6 1009.5 5.4
02/11:00pm 8.8 4.6 7.6 92 0.6 SSW 19 26 10 14 1009.0 1008.9 5.4
02/10:30pm 8.9 5.8 7.4 90 0.7 WSW 13 19 7 10 1008.5 1008.4 5.4
02/10:00pm 9.2 5.0 7.3 88 0.9 SW 19 30 10 16 1007.7 1007.6 5.2
02/09:30pm 9.3 4.9 7.4 88 0.9 S 20 35 11 19 1006.8 1006.7 5.2
02/09:00pm 9.3 5.7 8.5 95 0.4 SSW 17 30 9 16 1005.6 1005.5 5.2
02/08:30pm 9.3 6.8 8.3 93 0.5 S 11 15 6 8 1004.6 1004.5 5.2
02/08:00pm 9.6 6.8 8.4 92 0.6 S 13 17 7 9 1003.5 1003.3 5.0
02/07:30pm 9.4 7.0 8.6 95 0.4 SSE 11 17 6 9 1002.6 1002.5 5.0
02/07:00pm 9.4 7.4 8.8 96 0.3 ESE 9 15 5 8 1001.9 1001.8 5.0
02/06:30pm 9.7 7.8 8.9 95 0.4 E 9 13 5 7 1001.4 1001.3 5.0
02/06:00pm 9.6 7.6 8.6 93 0.5 ENE 9 13 5 7 1001.0 1000.9 5.0
02/05:30pm 10.0 7.2 8.6 91 0.7 NNE 13 19 7 10 1000.7 1000.6 4.2
02/05:00pm 10.1 7.7 8.7 91 0.7 ENE 11 13 6 7 1000.6 1000.5 3.8
02/04:30pm 10.0 7.3 9.0 93 0.5 NNE 13 17 7 9 1000.7 1000.6 3.8
02/04:00pm 10.0 8.0 8.8 92 0.6 NNE 9 11 5 6 1001.0 1000.9 3.4
02/03:30pm 9.9 7.5 8.7 92 0.6 NNE 11 15 6 8 1001.2 1001.1 3.0
02/03:00pm 9.8 7.3 8.4 91 0.7 N 11 19 6 10 1001.5 1001.4 2.0
02/02:30pm 10.3 6.5 7.7 84 1.3 NNW 17 32 9 17 1001.7 1001.6 1.4
02/02:00pm 11.0 6.6 6.6 74 2.1 NNW 19 28 10 15 1001.8 1001.7 1.2
02/01:30pm 11.0 5.6 6.2 72 2.3 NW 24 39 13 21 1002.2 1002.1 1.2
02/01:00pm 11.4 6.8 8.0 79 1.7 NNW 22 35 12 19 1002.6 1002.5 1.2
02/12:30pm 11.0 6.9 7.8 80 1.6 NNW 19 32 10 17 1003.3 1003.1 1.2
02/12:00pm 10.5 8.0 8.1 85 1.2 NNW 11 19 6 10 1003.7 1003.6 0.8
02/11:30am 11.3 6.9 7.2 76 2.0 NW 20 32 11 17 1004.1 1004.0 0.2
02/11:00am 12.5 6.8 4.8 59 3.6 NNW 24 39 13 21 1004.4 1004.3 0.0
02/10:30am 12.3 7.7 5.8 64 3.1 NW 19 30 10 16 1005.0 1004.9 0.0
02/10:00am 11.0 6.2 5.7 70 2.5 NNW 20 35 11 19 1005.4 1005.3 0.0
02/09:30am 10.8 6.8 6.6 75 2.0 NNW 17 24 9 13 1006.0 1005.9 0.0
02/09:00am 10.3 6.6 6.5 77 1.8 NNW 15 20 8 11 1006.2 1006.1 3.8
02/08:30am 9.4 6.0 6.0 79 1.6 NNW 13 20 7 11 1006.0 1005.9 3.8
02/08:00am 9.3 5.1 5.6 78 1.7 NNW 17 26 9 14 1005.7 1005.6 3.8
02/07:30am 9.3 4.5 4.9 74 2.0 NW 19 28 10 15 1005.7 1005.6 3.8
02/07:00am 9.1 4.7 4.9 75 1.9 NW 17 26 9 14 1005.6 1005.5 3.8
02/06:30am 8.6 6.4 6.3 85 1.1 NNW 7 11 4 6 1005.6 1005.5 3.8
02/06:00am 8.9 6.8 6.6 85 1.1 NNE 7 15 4 8 1005.3 1005.2 3.8
02/05:30am 9.0 6.6 7.1 88 0.9 NNW 9 17 5 9 1005.7 1005.6 3.8
02/05:00am 9.0 6.6 7.1 88 0.9 NE 9 11 5 6 1005.7 1005.6 3.8
02/04:30am 9.0 7.3 7.6 91 0.7 N 6 9 3 5 1006.3 1006.2 3.8
02/04:00am 9.2 7.3 7.5 89 0.8 NNW 7 11 4 6 1006.2 1006.1 3.8
02/03:30am 9.6 5.4 7.5 87 1.0 NW 19 28 10 15 1006.5 1006.4 3.6
02/03:00am 10.3 7.2 7.2 81 1.5 NNW 13 22 7 12 1007.0 1006.9 2.6
02/02:30am 9.8 7.9 7.5 85 1.1 N 7 13 4 7 1007.5 1007.4 2.6
02/02:00am 9.1 7.4 7.4 89 0.8 NE 6 7 3 4 1008.0 1007.9 2.6
02/01:30am 9.0 6.7 7.3 89 0.8 ENE 9 11 5 6 1008.0 1007.9 2.4
02/01:00am 8.9 6.7 7.7 92 0.6 NE 9 11 5 6 1008.3 1008.2 2.2
02/12:30am 9.4 7.0 7.1 85 1.1 NNE 9 15 5 8 1008.6 1008.5 1.6
02/12:00am 10.1 5.8 6.8 80 1.6 N 19 32 10 17 1008.5 1008.4 0.4
 
Date/Time
CST
Tmp

°C
App
Tmp
°C
Dew
Point
°C
Rel
Hum
%
Delta-T

°C
Wind Press
QNH
hPa
Press
MSL
hPa
Rain
since
9 am
mm
Dir
 
Spd
km/h
Gust
km/h
Spd
kts
Gust
kts
01/11:30pm 12.5 8.1 2.9 52 4.3 NNE 15 20 8 11 1008.4 1008.3 0.0
01/11:00pm 12.6 7.5 3.3 53 4.2 NNE 19 28 10 15 1008.7 1008.6 0.0
01/10:30pm 12.8 7.7 3.3 52 4.3 NE 19 26 10 14 1008.7 1008.6 0.0
01/10:00pm 13.0 7.3 3.0 50 4.5 NNE 22 35 12 19 1008.7 1008.6 0.0

Latest Capital City Observations: Canberra | Sydney | Melbourne | Brisbane | Adelaide | Perth | Hobart | Darwin

Other Formats:

Comma delimited format used in spreadsheet applications
http://www.bom.gov.au/fwo/IDS60901/IDS60901.94681.axf

JavaScript Object Notation format (JSON) in row-major order
http://www.bom.gov.au/fwo/IDS60901/IDS60901.94681.json